sensor_id;sensor_type;location;lat;lon;timestamp;pressure;altitude;pressure_sealevel;temperature;humidity
57412;BME280;43247;52.828;-8.980;2023-05-08T00:00:42;101105.00;;;15.28;85.69
57412;BME280;43247;52.828;-8.980;2023-05-08T00:01:41;101102.26;;;15.29;85.68
57412;BME280;43247;52.828;-8.980;2023-05-08T00:02:41;101101.81;;;15.29;85.70
57412;BME280;43247;52.828;-8.980;2023-05-08T00:03:41;101099.08;;;15.28;85.65
57412;BME280;43247;52.828;-8.980;2023-05-08T00:04:42;101099.44;;;15.28;85.63
57412;BME280;43247;52.828;-8.980;2023-05-08T00:05:42;101100.47;;;15.29;85.63
57412;BME280;43247;52.828;-8.980;2023-05-08T00:06:42;101101.35;;;15.29;85.66
57412;BME280;43247;52.828;-8.980;2023-05-08T00:07:42;101101.15;;;15.28;85.66
57412;BME280;43247;52.828;-8.980;2023-05-08T00:08:42;101098.65;;;15.28;85.67
57412;BME280;43247;52.828;-8.980;2023-05-08T00:09:42;101100.26;;;15.29;85.70
57412;BME280;43247;52.828;-8.980;2023-05-08T00:10:42;101099.69;;;15.29;85.68
57412;BME280;43247;52.828;-8.980;2023-05-08T00:11:43;101101.30;;;15.30;85.66
57412;BME280;43247;52.828;-8.980;2023-05-08T00:12:43;101097.73;;;15.29;85.69
57412;BME280;43247;52.828;-8.980;2023-05-08T00:13:43;101096.60;;;15.29;85.70
57412;BME280;43247;52.828;-8.980;2023-05-08T00:14:43;101096.14;;;15.29;85.72
57412;BME280;43247;52.828;-8.980;2023-05-08T00:15:43;101094.57;;;15.28;85.75
57412;BME280;43247;52.828;-8.980;2023-05-08T00:16:43;101089.92;;;15.28;85.73
57412;BME280;43247;52.828;-8.980;2023-05-08T00:17:43;101089.26;;;15.28;85.77
57412;BME280;43247;52.828;-8.980;2023-05-08T00:18:44;101090.86;;;15.28;85.74
57412;BME280;43247;52.828;-8.980;2023-05-08T00:19:44;101087.15;;;15.28;85.75
57412;BME280;43247;52.828;-8.980;2023-05-08T00:20:44;101087.41;;;15.28;85.73
57412;BME280;43247;52.828;-8.980;2023-05-08T00:21:44;101086.46;;;15.29;85.71
57412;BME280;43247;52.828;-8.980;2023-05-08T00:22:44;101088.52;;;15.28;85.75
57412;BME280;43247;52.828;-8.980;2023-05-08T00:23:44;101090.29;;;15.28;85.73
57412;BME280;43247;52.828;-8.980;2023-05-08T00:24:44;101089.25;;;15.28;85.73
57412;BME280;43247;52.828;-8.980;2023-05-08T00:25:45;101090.97;;;15.28;85.77
57412;BME280;43247;52.828;-8.980;2023-05-08T00:26:45;101089.00;;;15.28;85.78
57412;BME280;43247;52.828;-8.980;2023-05-08T00:27:45;101089.16;;;15.28;85.80
57412;BME280;43247;52.828;-8.980;2023-05-08T00:28:45;101088.95;;;15.28;85.80
57412;BME280;43247;52.828;-8.980;2023-05-08T00:29:48;101087.85;;;15.28;85.79
57412;BME280;43247;52.828;-8.980;2023-05-08T00:30:45;101089.92;;;15.28;85.77
57412;BME280;43247;52.828;-8.980;2023-05-08T00:31:46;101090.77;;;15.28;85.71
57412;BME280;43247;52.828;-8.980;2023-05-08T00:32:46;101090.10;;;15.28;85.73
57412;BME280;43247;52.828;-8.980;2023-05-08T00:33:46;101088.54;;;15.27;85.69
57412;BME280;43247;52.828;-8.980;2023-05-08T00:34:46;101088.01;;;15.28;85.70
57412;BME280;43247;52.828;-8.980;2023-05-08T00:35:46;101087.79;;;15.28;85.73
57412;BME280;43247;52.828;-8.980;2023-05-08T00:36:46;101087.22;;;15.28;85.78
57412;BME280;43247;52.828;-8.980;2023-05-08T00:37:46;101090.12;;;15.28;85.80
57412;BME280;43247;52.828;-8.980;2023-05-08T00:38:47;101090.81;;;15.28;85.84
57412;BME280;43247;52.828;-8.980;2023-05-08T00:39:47;101089.70;;;15.27;85.89
57412;BME280;43247;52.828;-8.980;2023-05-08T00:40:47;101091.43;;;15.28;85.90
57412;BME280;43247;52.828;-8.980;2023-05-08T00:41:47;101092.01;;;15.28;85.90
57412;BME280;43247;52.828;-8.980;2023-05-08T00:42:47;101093.29;;;15.28;85.93
57412;BME280;43247;52.828;-8.980;2023-05-08T00:43:47;101091.97;;;15.28;85.90
57412;BME280;43247;52.828;-8.980;2023-05-08T00:44:47;101090.58;;;15.27;85.92
57412;BME280;43247;52.828;-8.980;2023-05-08T00:45:48;101091.94;;;15.27;85.90
57412;BME280;43247;52.828;-8.980;2023-05-08T00:46:48;101096.50;;;15.28;85.85
57412;BME280;43247;52.828;-8.980;2023-05-08T00:47:49;101097.61;;;15.28;85.88
57412;BME280;43247;52.828;-8.980;2023-05-08T00:48:48;101093.46;;;15.27;85.83
57412;BME280;43247;52.828;-8.980;2023-05-08T00:49:48;101095.28;;;15.27;85.83
57412;BME280;43247;52.828;-8.980;2023-05-08T00:50:49;101095.18;;;15.27;85.83
57412;BME280;43247;52.828;-8.980;2023-05-08T00:51:50;101095.58;;;15.27;85.81
57412;BME280;43247;52.828;-8.980;2023-05-08T00:52:49;101094.21;;;15.27;85.79
57412;BME280;43247;52.828;-8.980;2023-05-08T00:53:49;101093.42;;;15.26;85.82
57412;BME280;43247;52.828;-8.980;2023-05-08T00:54:49;101093.51;;;15.26;85.83
57412;BME280;43247;52.828;-8.980;2023-05-08T00:55:50;101095.90;;;15.27;85.84
57412;BME280;43247;52.828;-8.980;2023-05-08T00:56:50;101094.74;;;15.28;85.85
57412;BME280;43247;52.828;-8.980;2023-05-08T00:57:51;101095.31;;;15.27;85.83
57412;BME280;43247;52.828;-8.980;2023-05-08T00:58:50;101095.63;;;15.27;85.81
57412;BME280;43247;52.828;-8.980;2023-05-08T00:59:50;101095.23;;;15.26;85.81
57412;BME280;43247;52.828;-8.980;2023-05-08T01:00:52;101095.78;;;15.26;85.80
57412;BME280;43247;52.828;-8.980;2023-05-08T01:01:50;101093.98;;;15.26;85.82
57412;BME280;43247;52.828;-8.980;2023-05-08T01:02:50;101093.10;;;15.25;85.79
57412;BME280;43247;52.828;-8.980;2023-05-08T01:03:50;101091.26;;;15.24;85.80
57412;BME280;43247;52.828;-8.980;2023-05-08T01:04:52;101087.77;;;15.24;85.89
57412;BME280;43247;52.828;-8.980;2023-05-08T01:05:50;101090.57;;;15.23;85.83
57412;BME280;43247;52.828;-8.980;2023-05-08T01:06:51;101089.42;;;15.23;85.84
57412;BME280;43247;52.828;-8.980;2023-05-08T01:07:51;101088.02;;;15.22;85.91
57412;BME280;43247;52.828;-8.980;2023-05-08T01:08:51;101086.85;;;15.22;85.94
57412;BME280;43247;52.828;-8.980;2023-05-08T01:09:51;101086.24;;;15.21;86.00
57412;BME280;43247;52.828;-8.980;2023-05-08T01:10:58;101082.47;;;15.21;86.03
57412;BME280;43247;52.828;-8.980;2023-05-08T01:12:03;101082.77;;;15.21;86.03
57412;BME280;43247;52.828;-8.980;2023-05-08T01:12:59;101080.34;;;15.21;86.11
57412;BME280;43247;52.828;-8.980;2023-05-08T01:14:00;101083.64;;;15.20;86.13
57412;BME280;43247;52.828;-8.980;2023-05-08T01:15:03;101079.34;;;15.20;86.20
57412;BME280;43247;52.828;-8.980;2023-05-08T01:15:56;101079.79;;;15.20;86.13
57412;BME280;43247;52.828;-8.980;2023-05-08T01:17:01;101076.95;;;15.20;86.14
57412;BME280;43247;52.828;-8.980;2023-05-08T01:18:01;101077.41;;;15.20;86.13
57412;BME280;43247;52.828;-8.980;2023-05-08T01:19:02;101079.61;;;15.20;86.11
57412;BME280;43247;52.828;-8.980;2023-05-08T01:20:00;101077.90;;;15.20;86.13
57412;BME280;43247;52.828;-8.980;2023-05-08T01:20:59;101079.74;;;15.20;86.13
57412;BME280;43247;52.828;-8.980;2023-05-08T01:21:57;101078.12;;;15.20;86.13
57412;BME280;43247;52.828;-8.980;2023-05-08T01:24:09;101077.17;;;15.20;86.26
57412;BME280;43247;52.828;-8.980;2023-05-08T01:28:09;101073.82;;;15.20;86.25
57412;BME280;43247;52.828;-8.980;2023-05-08T01:30:10;101077.83;;;15.20;86.21
57412;BME280;43247;52.828;-8.980;2023-05-08T01:31:02;101075.19;;;15.19;86.16
57412;BME280;43247;52.828;-8.980;2023-05-08T01:32:05;101074.63;;;15.19;86.15
57412;BME280;43247;52.828;-8.980;2023-05-08T01:32:57;101074.61;;;15.19;86.18
57412;BME280;43247;52.828;-8.980;2023-05-08T01:34:01;101072.38;;;15.19;86.20
57412;BME280;43247;52.828;-8.980;2023-05-08T01:35:02;101075.50;;;15.19;86.22
57412;BME280;43247;52.828;-8.980;2023-05-08T01:36:05;101073.15;;;15.18;86.31
57412;BME280;43247;52.828;-8.980;2023-05-08T01:37:00;101077.69;;;15.18;86.31
57412;BME280;43247;52.828;-8.980;2023-05-08T01:38:00;101076.46;;;15.18;86.36
57412;BME280;43247;52.828;-8.980;2023-05-08T01:39:09;101074.15;;;15.17;86.36
57412;BME280;43247;52.828;-8.980;2023-05-08T01:40:03;101075.53;;;15.17;86.42
57412;BME280;43247;52.828;-8.980;2023-05-08T01:41:02;101075.04;;;15.17;86.50
57412;BME280;43247;52.828;-8.980;2023-05-08T01:42:06;101076.63;;;15.17;86.42
57412;BME280;43247;52.828;-8.980;2023-05-08T01:43:04;101075.80;;;15.17;86.29
57412;BME280;43247;52.828;-8.980;2023-05-08T01:44:08;101075.43;;;15.17;86.22
57412;BME280;43247;52.828;-8.980;2023-05-08T01:45:00;101077.44;;;15.17;86.12
57412;BME280;43247;52.828;-8.980;2023-05-08T01:46:04;101078.03;;;15.17;86.06
57412;BME280;43247;52.828;-8.980;2023-05-08T01:46:57;101077.19;;;15.18;86.00
57412;BME280;43247;52.828;-8.980;2023-05-08T01:48:02;101076.39;;;15.18;85.96
57412;BME280;43247;52.828;-8.980;2023-05-08T01:49:02;101077.35;;;15.18;85.95
57412;BME280;43247;52.828;-8.980;2023-05-08T01:50:04;101077.26;;;15.18;85.96
57412;BME280;43247;52.828;-8.980;2023-05-08T01:51:02;101075.43;;;15.19;85.92
57412;BME280;43247;52.828;-8.980;2023-05-08T01:52:04;101073.35;;;15.19;85.92
57412;BME280;43247;52.828;-8.980;2023-05-08T01:53:02;101074.45;;;15.19;85.90
57412;BME280;43247;52.828;-8.980;2023-05-08T01:54:00;101078.36;;;15.20;85.91
57412;BME280;43247;52.828;-8.980;2023-05-08T01:55:02;101080.05;;;15.20;85.91
57412;BME280;43247;52.828;-8.980;2023-05-08T01:56:02;101079.66;;;15.20;85.89
57412;BME280;43247;52.828;-8.980;2023-05-08T01:57:00;101081.60;;;15.20;85.88
57412;BME280;43247;52.828;-8.980;2023-05-08T01:58:00;101082.91;;;15.21;85.88
57412;BME280;43247;52.828;-8.980;2023-05-08T01:59:00;101083.50;;;15.21;85.89
57412;BME280;43247;52.828;-8.980;2023-05-08T02:00:00;101085.88;;;15.21;85.88
57412;BME280;43247;52.828;-8.980;2023-05-08T02:01:00;101084.84;;;15.21;85.90
57412;BME280;43247;52.828;-8.980;2023-05-08T02:02:00;101085.52;;;15.21;85.91
57412;BME280;43247;52.828;-8.980;2023-05-08T02:03:00;101083.61;;;15.21;85.94
57412;BME280;43247;52.828;-8.980;2023-05-08T02:04:00;101083.32;;;15.21;86.03
57412;BME280;43247;52.828;-8.980;2023-05-08T02:05:02;101084.36;;;15.21;86.06
57412;BME280;43247;52.828;-8.980;2023-05-08T02:06:00;101085.84;;;15.21;86.07
57412;BME280;43247;52.828;-8.980;2023-05-08T02:07:00;101086.04;;;15.20;86.06
57412;BME280;43247;52.828;-8.980;2023-05-08T02:08:00;101087.29;;;15.20;86.06
57412;BME280;43247;52.828;-8.980;2023-05-08T02:09:01;101083.03;;;15.20;86.07
57412;BME280;43247;52.828;-8.980;2023-05-08T02:10:02;101086.61;;;15.20;86.07
57412;BME280;43247;52.828;-8.980;2023-05-08T02:11:01;101083.49;;;15.20;86.06
57412;BME280;43247;52.828;-8.980;2023-05-08T02:12:01;101086.09;;;15.20;86.06
57412;BME280;43247;52.828;-8.980;2023-05-08T02:13:01;101088.19;;;15.20;86.09
57412;BME280;43247;52.828;-8.980;2023-05-08T02:14:01;101090.73;;;15.20;86.15
57412;BME280;43247;52.828;-8.980;2023-05-08T02:15:01;101090.03;;;15.20;86.19
57412;BME280;43247;52.828;-8.980;2023-05-08T02:16:02;101088.35;;;15.20;86.23
57412;BME280;43247;52.828;-8.980;2023-05-08T02:17:02;101087.45;;;15.20;86.24
57412;BME280;43247;52.828;-8.980;2023-05-08T02:18:03;101090.76;;;15.20;86.30
57412;BME280;43247;52.828;-8.980;2023-05-08T02:19:02;101090.81;;;15.20;86.29
57412;BME280;43247;52.828;-8.980;2023-05-08T02:20:04;101093.73;;;15.20;86.31
57412;BME280;43247;52.828;-8.980;2023-05-08T02:21:04;101097.00;;;15.20;86.30
57412;BME280;43247;52.828;-8.980;2023-05-08T02:22:05;101096.43;;;15.21;86.34
57412;BME280;43247;52.828;-8.980;2023-05-08T02:23:04;101098.55;;;15.21;86.37
57412;BME280;43247;52.828;-8.980;2023-05-08T02:24:05;101099.63;;;15.21;86.37
57412;BME280;43247;52.828;-8.980;2023-05-08T02:25:06;101097.64;;;15.21;86.38
57412;BME280;43247;52.828;-8.980;2023-05-08T02:26:04;101096.74;;;15.21;86.39
57412;BME280;43247;52.828;-8.980;2023-05-08T02:27:06;101096.17;;;15.21;86.37
57412;BME280;43247;52.828;-8.980;2023-05-08T02:28:05;101093.27;;;15.21;86.33
57412;BME280;43247;52.828;-8.980;2023-05-08T02:29:05;101086.89;;;15.21;86.32
57412;BME280;43247;52.828;-8.980;2023-05-08T02:30:06;101086.98;;;15.21;86.26
57412;BME280;43247;52.828;-8.980;2023-05-08T02:31:06;101086.60;;;15.21;86.22
57412;BME280;43247;52.828;-8.980;2023-05-08T02:32:07;101087.98;;;15.21;86.20
57412;BME280;43247;52.828;-8.980;2023-05-08T02:33:07;101083.62;;;15.21;86.15
57412;BME280;43247;52.828;-8.980;2023-05-08T02:34:07;101083.38;;;15.21;86.14
57412;BME280;43247;52.828;-8.980;2023-05-08T02:35:07;101083.48;;;15.21;86.13
57412;BME280;43247;52.828;-8.980;2023-05-08T02:36:07;101080.29;;;15.21;86.12
57412;BME280;43247;52.828;-8.980;2023-05-08T02:37:06;101085.49;;;15.21;86.10
57412;BME280;43247;52.828;-8.980;2023-05-08T02:38:08;101085.35;;;15.22;86.11
57412;BME280;43247;52.828;-8.980;2023-05-08T02:39:07;101085.01;;;15.22;86.13
57412;BME280;43247;52.828;-8.980;2023-05-08T02:40:08;101087.42;;;15.22;86.13
57412;BME280;43247;52.828;-8.980;2023-05-08T02:41:07;101084.21;;;15.22;86.18
57412;BME280;43247;52.828;-8.980;2023-05-08T02:42:07;101085.56;;;15.22;86.17
57412;BME280;43247;52.828;-8.980;2023-05-08T02:43:07;101089.17;;;15.22;86.19
57412;BME280;43247;52.828;-8.980;2023-05-08T02:44:07;101087.75;;;15.22;86.20
57412;BME280;43247;52.828;-8.980;2023-05-08T02:45:08;101092.24;;;15.22;86.23
57412;BME280;43247;52.828;-8.980;2023-05-08T02:46:12;101089.28;;;15.22;86.24
57412;BME280;43247;52.828;-8.980;2023-05-08T02:47:14;101089.07;;;15.23;86.23
57412;BME280;43247;52.828;-8.980;2023-05-08T02:48:11;101091.84;;;15.23;86.23
57412;BME280;43247;52.828;-8.980;2023-05-08T02:49:17;101095.21;;;15.23;86.23
57412;BME280;43247;52.828;-8.980;2023-05-08T02:50:15;101094.21;;;15.23;86.23
57412;BME280;43247;52.828;-8.980;2023-05-08T02:51:17;101090.64;;;15.24;86.21
57412;BME280;43247;52.828;-8.980;2023-05-08T02:52:12;101092.92;;;15.23;86.18
57412;BME280;43247;52.828;-8.980;2023-05-08T02:53:14;101095.63;;;15.23;86.13
57412;BME280;43247;52.828;-8.980;2023-05-08T02:54:13;101097.52;;;15.23;86.13
57412;BME280;43247;52.828;-8.980;2023-05-08T02:55:16;101098.73;;;15.23;86.14
57412;BME280;43247;52.828;-8.980;2023-05-08T02:56:13;101095.71;;;15.23;86.16
57412;BME280;43247;52.828;-8.980;2023-05-08T02:57:20;101097.77;;;15.23;86.15
57412;BME280;43247;52.828;-8.980;2023-05-08T02:58:16;101102.17;;;15.23;86.16
57412;BME280;43247;52.828;-8.980;2023-05-08T02:59:15;101100.49;;;15.23;86.17
57412;BME280;43247;52.828;-8.980;2023-05-08T03:00:15;101103.31;;;15.23;86.20
57412;BME280;43247;52.828;-8.980;2023-05-08T03:01:18;101105.66;;;15.23;86.26
57412;BME280;43247;52.828;-8.980;2023-05-08T03:02:15;101102.80;;;15.24;86.34
57412;BME280;43247;52.828;-8.980;2023-05-08T03:03:16;101104.76;;;15.24;86.37
57412;BME280;43247;52.828;-8.980;2023-05-08T03:04:13;101104.62;;;15.24;86.44
57412;BME280;43247;52.828;-8.980;2023-05-08T03:05:14;101106.86;;;15.23;86.49
57412;BME280;43247;52.828;-8.980;2023-05-08T03:06:12;101108.97;;;15.23;86.53
57412;BME280;43247;52.828;-8.980;2023-05-08T03:07:11;101109.86;;;15.23;86.63
57412;BME280;43247;52.828;-8.980;2023-05-08T03:08:15;101109.48;;;15.23;86.66
57412;BME280;43247;52.828;-8.980;2023-05-08T03:09:15;101109.06;;;15.23;86.71
57412;BME280;43247;52.828;-8.980;2023-05-08T03:10:13;101112.28;;;15.22;86.66
57412;BME280;43247;52.828;-8.980;2023-05-08T03:11:15;101111.83;;;15.23;86.63
57412;BME280;43247;52.828;-8.980;2023-05-08T03:12:14;101110.60;;;15.23;86.62
57412;BME280;43247;52.828;-8.980;2023-05-08T03:13:12;101113.16;;;15.23;86.59
57412;BME280;43247;52.828;-8.980;2023-05-08T03:14:13;101112.78;;;15.23;86.54
57412;BME280;43247;52.828;-8.980;2023-05-08T03:15:18;101114.35;;;15.23;86.52
57412;BME280;43247;52.828;-8.980;2023-05-08T03:16:17;101115.88;;;15.22;86.46
57412;BME280;43247;52.828;-8.980;2023-05-08T03:17:15;101119.61;;;15.22;86.44
57412;BME280;43247;52.828;-8.980;2023-05-08T03:18:15;101117.61;;;15.22;86.41
57412;BME280;43247;52.828;-8.980;2023-05-08T03:19:18;101120.29;;;15.22;86.37
57412;BME280;43247;52.828;-8.980;2023-05-08T03:20:15;101123.51;;;15.22;86.41
57412;BME280;43247;52.828;-8.980;2023-05-08T03:21:17;101119.88;;;15.22;86.45
57412;BME280;43247;52.828;-8.980;2023-05-08T03:22:14;101117.75;;;15.22;86.47
57412;BME280;43247;52.828;-8.980;2023-05-08T03:23:14;101118.12;;;15.22;86.54
57412;BME280;43247;52.828;-8.980;2023-05-08T03:24:14;101119.52;;;15.22;86.58
57412;BME280;43247;52.828;-8.980;2023-05-08T03:25:16;101121.36;;;15.22;86.59
57412;BME280;43247;52.828;-8.980;2023-05-08T03:26:16;101126.33;;;15.21;86.64
57412;BME280;43247;52.828;-8.980;2023-05-08T03:27:15;101124.61;;;15.21;86.65
57412;BME280;43247;52.828;-8.980;2023-05-08T03:28:15;101126.07;;;15.22;86.68
57412;BME280;43247;52.828;-8.980;2023-05-08T03:29:15;101128.56;;;15.21;86.67
57412;BME280;43247;52.828;-8.980;2023-05-08T03:30:16;101128.58;;;15.21;86.66
57412;BME280;43247;52.828;-8.980;2023-05-08T03:31:15;101131.28;;;15.20;86.64
57412;BME280;43247;52.828;-8.980;2023-05-08T03:32:16;101131.90;;;15.20;86.68
57412;BME280;43247;52.828;-8.980;2023-05-08T03:33:16;101130.31;;;15.20;86.68
57412;BME280;43247;52.828;-8.980;2023-05-08T03:34:16;101128.58;;;15.20;86.66
57412;BME280;43247;52.828;-8.980;2023-05-08T03:35:15;101126.92;;;15.20;86.71
57412;BME280;43247;52.828;-8.980;2023-05-08T03:36:15;101126.37;;;15.20;86.68
57412;BME280;43247;52.828;-8.980;2023-05-08T03:37:15;101126.11;;;15.20;86.67
57412;BME280;43247;52.828;-8.980;2023-05-08T03:38:15;101127.54;;;15.20;86.63
57412;BME280;43247;52.828;-8.980;2023-05-08T03:39:15;101127.06;;;15.20;86.63
57412;BME280;43247;52.828;-8.980;2023-05-08T03:40:16;101129.21;;;15.20;86.58
57412;BME280;43247;52.828;-8.980;2023-05-08T03:41:16;101129.16;;;15.20;86.63
57412;BME280;43247;52.828;-8.980;2023-05-08T03:42:16;101128.22;;;15.20;86.69
57412;BME280;43247;52.828;-8.980;2023-05-08T03:43:17;101127.50;;;15.20;86.71
57412;BME280;43247;52.828;-8.980;2023-05-08T03:44:17;101125.71;;;15.19;86.67
57412;BME280;43247;52.828;-8.980;2023-05-08T03:45:17;101130.00;;;15.19;86.67
57412;BME280;43247;52.828;-8.980;2023-05-08T03:46:17;101130.11;;;15.19;86.64
57412;BME280;43247;52.828;-8.980;2023-05-08T03:47:17;101129.75;;;15.19;86.63
57412;BME280;43247;52.828;-8.980;2023-05-08T03:48:17;101131.21;;;15.19;86.63
57412;BME280;43247;52.828;-8.980;2023-05-08T03:49:17;101131.77;;;15.19;86.63
57412;BME280;43247;52.828;-8.980;2023-05-08T03:50:17;101131.14;;;15.18;86.62
57412;BME280;43247;52.828;-8.980;2023-05-08T03:51:18;101129.16;;;15.18;86.58
57412;BME280;43247;52.828;-8.980;2023-05-08T03:52:17;101129.79;;;15.18;86.52
57412;BME280;43247;52.828;-8.980;2023-05-08T03:53:17;101130.51;;;15.18;86.52
57412;BME280;43247;52.828;-8.980;2023-05-08T03:54:18;101129.81;;;15.19;86.51
57412;BME280;43247;52.828;-8.980;2023-05-08T03:55:18;101129.69;;;15.18;86.49
57412;BME280;43247;52.828;-8.980;2023-05-08T03:56:18;101129.36;;;15.18;86.47
57412;BME280;43247;52.828;-8.980;2023-05-08T03:57:18;101129.30;;;15.18;86.46
57412;BME280;43247;52.828;-8.980;2023-05-08T03:58:23;101130.03;;;15.18;86.45
57412;BME280;43247;52.828;-8.980;2023-05-08T03:59:25;101130.79;;;15.18;86.44
57412;BME280;43247;52.828;-8.980;2023-05-08T04:00:23;101129.86;;;15.18;86.45
57412;BME280;43247;52.828;-8.980;2023-05-08T04:01:24;101130.82;;;15.17;86.44
57412;BME280;43247;52.828;-8.980;2023-05-08T04:02:24;101129.09;;;15.17;86.44
57412;BME280;43247;52.828;-8.980;2023-05-08T04:03:23;101127.07;;;15.17;86.43
57412;BME280;43247;52.828;-8.980;2023-05-08T04:04:24;101126.51;;;15.17;86.45
57412;BME280;43247;52.828;-8.980;2023-05-08T04:05:23;101126.25;;;15.17;86.44
57412;BME280;43247;52.828;-8.980;2023-05-08T04:06:24;101128.13;;;15.18;86.38
57412;BME280;43247;52.828;-8.980;2023-05-08T04:07:26;101126.28;;;15.18;86.43
57412;BME280;43247;52.828;-8.980;2023-05-08T04:08:24;101128.41;;;15.18;86.43
57412;BME280;43247;52.828;-8.980;2023-05-08T04:09:24;101127.07;;;15.17;86.43
57412;BME280;43247;52.828;-8.980;2023-05-08T04:10:24;101126.88;;;15.17;86.47
57412;BME280;43247;52.828;-8.980;2023-05-08T04:11:25;101126.11;;;15.17;86.52
57412;BME280;43247;52.828;-8.980;2023-05-08T04:12:28;101126.26;;;15.17;86.56
57412;BME280;43247;52.828;-8.980;2023-05-08T04:13:26;101128.26;;;15.17;86.55
57412;BME280;43247;52.828;-8.980;2023-05-08T04:14:26;101125.92;;;15.17;86.53
57412;BME280;43247;52.828;-8.980;2023-05-08T04:15:23;101126.91;;;15.17;86.51
57412;BME280;43247;52.828;-8.980;2023-05-08T04:16:23;101128.05;;;15.16;86.49
57412;BME280;43247;52.828;-8.980;2023-05-08T04:17:27;101128.07;;;15.16;86.47
57412;BME280;43247;52.828;-8.980;2023-05-08T04:18:27;101128.45;;;15.16;86.46
57412;BME280;43247;52.828;-8.980;2023-05-08T04:19:23;101130.38;;;15.16;86.49
57412;BME280;43247;52.828;-8.980;2023-05-08T04:20:25;101132.44;;;15.16;86.49
57412;BME280;43247;52.828;-8.980;2023-05-08T04:21:23;101132.24;;;15.16;86.46
57412;BME280;43247;52.828;-8.980;2023-05-08T04:22:23;101131.30;;;15.16;86.45
57412;BME280;43247;52.828;-8.980;2023-05-08T04:23:22;101132.08;;;15.16;86.45
57412;BME280;43247;52.828;-8.980;2023-05-08T04:24:24;101132.94;;;15.16;86.40
57412;BME280;43247;52.828;-8.980;2023-05-08T04:25:22;101131.88;;;15.15;86.41
57412;BME280;43247;52.828;-8.980;2023-05-08T04:26:22;101133.40;;;15.15;86.37
57412;BME280;43247;52.828;-8.980;2023-05-08T04:27:23;101136.55;;;15.15;86.35
57412;BME280;43247;52.828;-8.980;2023-05-08T04:28:22;101136.24;;;15.15;86.35
57412;BME280;43247;52.828;-8.980;2023-05-08T04:29:23;101133.77;;;15.15;86.36
57412;BME280;43247;52.828;-8.980;2023-05-08T04:30:23;101134.95;;;15.15;86.37
57412;BME280;43247;52.828;-8.980;2023-05-08T04:31:23;101136.17;;;15.15;86.36
57412;BME280;43247;52.828;-8.980;2023-05-08T04:32:23;101136.48;;;15.15;86.35
57412;BME280;43247;52.828;-8.980;2023-05-08T04:33:24;101139.78;;;15.15;86.30
57412;BME280;43247;52.828;-8.980;2023-05-08T04:34:23;101142.44;;;15.15;86.32
57412;BME280;43247;52.828;-8.980;2023-05-08T04:35:24;101142.81;;;15.15;86.30
57412;BME280;43247;52.828;-8.980;2023-05-08T04:36:24;101142.49;;;15.15;86.28
57412;BME280;43247;52.828;-8.980;2023-05-08T04:37:24;101141.51;;;15.15;86.25
57412;BME280;43247;52.828;-8.980;2023-05-08T04:38:24;101145.16;;;15.15;86.25
57412;BME280;43247;52.828;-8.980;2023-05-08T04:39:24;101142.98;;;15.14;86.26
57412;BME280;43247;52.828;-8.980;2023-05-08T04:40:24;101142.89;;;15.14;86.24
57412;BME280;43247;52.828;-8.980;2023-05-08T04:41:24;101142.30;;;15.14;86.27
57412;BME280;43247;52.828;-8.980;2023-05-08T04:42:26;101141.82;;;15.14;86.27
57412;BME280;43247;52.828;-8.980;2023-05-08T04:43:25;101143.21;;;15.15;86.24
57412;BME280;43247;52.828;-8.980;2023-05-08T04:44:25;101140.68;;;15.14;86.24
57412;BME280;43247;52.828;-8.980;2023-05-08T04:45:25;101139.85;;;15.14;86.22
57412;BME280;43247;52.828;-8.980;2023-05-08T04:46:25;101141.99;;;15.14;86.24
57412;BME280;43247;52.828;-8.980;2023-05-08T04:47:25;101145.34;;;15.14;86.25
57412;BME280;43247;52.828;-8.980;2023-05-08T04:48:25;101147.08;;;15.14;86.27
57412;BME280;43247;52.828;-8.980;2023-05-08T04:49:25;101145.19;;;15.14;86.26
57412;BME280;43247;52.828;-8.980;2023-05-08T04:50:26;101143.86;;;15.14;86.28
57412;BME280;43247;52.828;-8.980;2023-05-08T04:51:26;101141.72;;;15.13;86.28
57412;BME280;43247;52.828;-8.980;2023-05-08T04:52:26;101142.56;;;15.14;86.28
57412;BME280;43247;52.828;-8.980;2023-05-08T04:53:26;101143.64;;;15.14;86.30
57412;BME280;43247;52.828;-8.980;2023-05-08T04:54:26;101142.30;;;15.14;86.27
57412;BME280;43247;52.828;-8.980;2023-05-08T04:55:26;101142.15;;;15.14;86.28
57412;BME280;43247;52.828;-8.980;2023-05-08T04:56:26;101144.07;;;15.13;86.25
57412;BME280;43247;52.828;-8.980;2023-05-08T04:57:27;101146.47;;;15.13;86.28
57412;BME280;43247;52.828;-8.980;2023-05-08T04:58:27;101146.49;;;15.13;86.29
57412;BME280;43247;52.828;-8.980;2023-05-08T04:59:27;101147.23;;;15.13;86.32
57412;BME280;43247;52.828;-8.980;2023-05-08T05:00:27;101149.85;;;15.13;86.35
57412;BME280;43247;52.828;-8.980;2023-05-08T05:01:27;101148.71;;;15.13;86.37
57412;BME280;43247;52.828;-8.980;2023-05-08T05:02:27;101149.48;;;15.13;86.30
57412;BME280;43247;52.828;-8.980;2023-05-08T05:03:27;101148.58;;;15.13;86.27
57412;BME280;43247;52.828;-8.980;2023-05-08T05:04:28;101148.11;;;15.14;86.32
57412;BME280;43247;52.828;-8.980;2023-05-08T05:05:28;101148.86;;;15.13;86.31
57412;BME280;43247;52.828;-8.980;2023-05-08T05:06:28;101146.39;;;15.13;86.30
57412;BME280;43247;52.828;-8.980;2023-05-08T05:07:28;101146.95;;;15.14;86.30
57412;BME280;43247;52.828;-8.980;2023-05-08T05:08:28;101149.08;;;15.13;86.33
57412;BME280;43247;52.828;-8.980;2023-05-08T05:09:29;101150.38;;;15.13;86.30
57412;BME280;43247;52.828;-8.980;2023-05-08T05:10:28;101152.51;;;15.13;86.32
57412;BME280;43247;52.828;-8.980;2023-05-08T05:11:29;101152.52;;;15.13;86.32
57412;BME280;43247;52.828;-8.980;2023-05-08T05:12:29;101152.34;;;15.13;86.33
57412;BME280;43247;52.828;-8.980;2023-05-08T05:13:29;101155.87;;;15.13;86.32
57412;BME280;43247;52.828;-8.980;2023-05-08T05:14:29;101157.53;;;15.13;86.31
57412;BME280;43247;52.828;-8.980;2023-05-08T05:15:29;101158.27;;;15.13;86.31